Time;durP1;ratioP1;P1;durP2;ratioP2;P2;SDS_P1;SDS_P2;PMS_P1;PMS_P2;Temp;Humidity;BMP_temperature;BMP_pressure;BME280_temperature;BME280_humidity;BME280_pressure;Samples;Min_cycle;Max_cycle;Signal;HPM_P1;HPM_P2
2022/11/28 00:01:03;;;;;;;19.30;11.07;;;;;;;-142.75;100.00;77359.72;4976240;28;20036;-62
2022/11/28 00:03:29;;;;;;;17.57;11.50;;;;;;;-142.75;100.00;77367.59;4974742;28;20037;-62
2022/11/28 00:05:55;;;;;;;19.13;11.63;;;;;;;-142.75;100.00;77357.75;4972902;28;20206;-62
2022/11/28 00:08:20;;;;;;;22.60;12.73;;;;;;;-142.75;100.00;77349.88;4967612;28;20388;-62
2022/11/28 00:10:46;;;;;;;21.23;11.95;;;;;;;-142.75;100.00;77343.97;4973425;28;20401;-61
2022/11/28 00:13:11;;;;;;;19.45;11.65;;;;;;;-142.75;100.00;77326.25;5002777;22;20049;-65
2022/11/28 00:15:37;;;;;;;20.55;12.35;;;;;;;-142.75;100.00;77322.31;4967873;28;20340;-64
2022/11/28 00:18:02;;;;;;;18.85;11.73;;;;;;;-142.75;100.00;77322.31;4973557;28;20398;-64
2022/11/28 00:20:30;;;;;;;19.67;11.48;;;;;;;-142.75;100.00;77308.53;4976036;28;20326;-64
2022/11/28 00:22:56;;;;;;;17.63;11.07;;;;;;;-142.75;100.00;77318.38;4959796;28;20061;-64
2022/11/28 00:25:21;;;;;;;19.77;11.88;;;;;;;-142.75;100.00;77316.41;4972687;28;20400;-62
2022/11/28 00:27:47;;;;;;;21.38;11.50;;;;;;;-142.75;100.00;77326.25;4978561;28;20067;-63
2022/11/28 00:30:12;;;;;;;17.38;10.77;;;;;;;-142.75;100.00;77314.44;4974284;28;20357;-65
2022/11/28 00:32:38;;;;;;;17.30;10.52;;;;;;;-142.75;100.00;77314.44;4971400;28;20037;-64
2022/11/28 00:35:03;;;;;;;15.68;10.30;;;;;;;-142.75;100.00;77308.53;4974362;28;20315;-64
2022/11/28 00:37:29;;;;;;;17.25;9.75;;;;;;;-142.75;100.00;77312.47;4978810;28;20347;-64
2022/11/28 00:39:54;;;;;;;14.32;9.85;;;;;;;-142.75;100.00;77294.75;4970611;28;20299;-64
2022/11/28 00:42:21;;;;;;;19.65;10.82;;;;;;;-142.75;100.00;77294.75;4971063;28;20437;-64
2022/11/28 00:44:47;;;;;;;;;;;;;;;-142.75;100.00;77290.81;4972869;28;20917;-64
2022/11/28 00:47:12;;;;;;;16.60;9.77;;;;;;;-142.75;100.00;77286.88;4973154;28;19943;-63
2022/11/28 00:49:38;;;;;;;17.35;9.50;;;;;;;-142.75;100.00;77288.84;4973199;28;20051;-64
2022/11/28 00:52:03;;;;;;;15.13;9.05;;;;;;;-142.75;100.00;77288.84;4972738;28;20326;-64
2022/11/28 00:54:29;;;;;;;13.38;8.93;;;;;;;-142.75;100.00;77286.88;4968866;28;20513;-64
2022/11/28 00:56:54;;;;;;;12.55;8.55;;;;;;;-142.75;100.00;77279.00;4976094;28;20394;-64
2022/11/28 00:59:19;;;;;;;13.15;8.82;;;;;;;-142.75;100.00;77275.06;4975829;28;20330;-64
2022/11/28 01:01:45;;;;;;;14.60;9.02;;;;;;;-142.75;100.00;77280.97;4975807;28;20421;-64
2022/11/28 01:04:14;;;;;;;15.07;9.75;;;;;;;-142.75;100.00;77269.16;4975014;28;20379;-64
2022/11/28 01:06:48;;;;;;;17.23;8.73;;;;;;;-142.75;100.00;77255.38;4975190;28;20168;-64
2022/11/28 01:09:16;;;;;;;17.88;9.77;;;;;;;-142.75;100.00;77257.34;4971159;28;20021;-64
2022/11/28 01:11:43;;;;;;;14.07;9.07;;;;;;;-142.75;100.00;77259.31;4974716;28;20029;-64
2022/11/28 01:14:10;;;;;;;12.75;8.55;;;;;;;-142.75;100.00;77257.34;4974637;28;20554;-64
2022/11/28 01:16:36;;;;;;;13.15;8.57;;;;;;;-142.75;100.00;77253.41;4971037;28;20588;-64
2022/11/28 01:19:02;;;;;;;14.20;8.30;;;;;;;-142.75;100.00;77247.50;4973321;28;20025;-64
2022/11/28 01:21:27;;;;;;;12.55;8.20;;;;;;;-142.75;100.00;77243.56;4968560;28;20481;-64
2022/11/28 01:23:53;;;;;;;10.38;7.10;;;;;;;-142.75;100.00;77229.78;4971229;28;20849;-64
2022/11/28 01:26:23;;;;;;;13.52;7.30;;;;;;;-142.75;100.00;77223.88;4974743;28;20299;-64
2022/11/28 01:28:49;;;;;;;10.23;6.73;;;;;;;-142.75;100.00;77229.78;4969308;28;20090;-64
2022/11/28 01:31:17;;;;;;;10.25;6.90;;;;;;;-142.75;100.00;77225.84;4977674;28;20029;-64
2022/11/28 01:33:43;;;;;;;10.43;6.75;;;;;;;-142.75;100.00;77216.00;4969515;28;20025;-64
2022/11/28 01:36:10;;;;;;;;;;;;;;;-142.75;100.00;77210.09;4972901;28;20025;-64
2022/11/28 01:38:35;;;;;;;8.20;5.78;;;;;;;-142.75;100.00;77216.00;4966574;28;19912;-64
2022/11/28 01:41:01;;;;;;;9.65;5.50;;;;;;;-142.75;100.00;77210.09;4974204;28;20469;-64
2022/11/28 01:43:27;;;;;;;;;;;;;;;-142.75;100.00;77200.25;4971437;28;20133;-64
2022/11/28 01:45:52;;;;;;;9.88;4.63;;;;;;;-142.75;100.00;77198.28;4970970;28;20264;-64
2022/11/28 01:48:30;;;;;;;5.57;3.92;;;;;;;-142.75;100.00;77192.38;4978441;28;20218;-64
2022/11/28 01:50:58;;;;;;;7.53;4.63;;;;;;;-142.75;100.00;77194.34;4972881;28;20025;-64
2022/11/28 01:53:28;;;;;;;9.63;4.32;;;;;;;-142.75;100.00;77184.50;4971055;28;20136;-64
2022/11/28 01:56:11;;;;;;;6.20;4.40;;;;;;;-142.75;100.00;77188.44;4972260;28;20189;-64
2022/11/28 01:58:41;;;;;;;5.97;4.40;;;;;;;-142.75;100.00;77178.59;4969939;28;20090;-64
2022/11/28 02:01:08;;;;;;;7.15;4.88;;;;;;;-142.75;100.00;77174.66;4970238;28;20056;-64
2022/11/28 02:03:41;;;;;;;6.97;4.47;;;;;;;-142.75;100.00;77168.75;4975950;28;20612;-61
2022/11/28 02:06:08;;;;;;;8.00;4.65;;;;;;;-142.75;100.00;77162.84;4975832;28;20106;-64
2022/11/28 02:08:35;;;;;;;7.80;5.00;;;;;;;-142.75;100.00;77176.63;4976732;28;20572;-64
2022/11/28 02:11:37;;;;;;;8.00;4.93;;;;;;;-142.75;100.00;77166.78;4969307;28;20135;-64
2022/11/28 02:14:11;;;;;;;7.32;4.97;;;;;;;-142.75;100.00;77164.81;4973388;28;20060;-64
2022/11/28 02:16:55;;;;;;;7.53;5.05;;;;;;;-142.75;100.00;77160.88;4969910;28;20106;-64
2022/11/28 02:19:35;;;;;;;7.20;4.65;;;;;;;-142.75;100.00;77158.91;4968237;28;20029;-64
2022/11/28 02:22:32;;;;;;;7.28;4.90;;;;;;;-142.75;100.00;77153.00;4978606;28;20028;-64
2022/11/28 02:25:29;;;;;;;7.50;5.72;;;;;;;-142.75;100.00;77158.91;4976777;28;20033;-64
2022/11/28 02:28:36;;;;;;;8.85;5.60;;;;;;;-142.75;100.00;77164.81;4968365;28;20565;-63
2022/11/28 02:31:14;;;;;;;8.43;6.23;;;;;;;-142.75;100.00;77166.78;4959998;28;20018;-64
2022/11/28 02:33:49;;;;;;;10.30;5.85;;;;;;;-142.75;100.00;77172.69;4973575;28;20338;-64
2022/11/28 02:36:22;;;;;;;10.20;6.93;;;;;;;-142.75;100.00;77172.69;4979177;28;20025;-64
2022/11/28 02:39:13;;;;;;;13.32;7.45;;;;;;;-142.75;100.00;77174.66;4980475;28;20652;-62
2022/11/28 02:42:14;;;;;;;10.13;6.88;;;;;;;-142.75;100.00;77172.69;4973643;28;20037;-64
2022/11/28 02:45:07;;;;;;;10.55;7.57;;;;;;;-142.75;100.00;77174.66;4977123;28;20025;-64
2022/11/28 02:47:36;;;;;;;10.70;7.22;;;;;;;-142.75;100.00;77184.50;4968624;28;20017;-64
2022/11/28 02:50:20;;;;;;;10.90;8.15;;;;;;;-142.75;100.00;77178.59;4969423;28;20079;-64
2022/11/28 02:52:51;;;;;;;11.88;8.35;;;;;;;-142.75;100.00;77184.50;4972722;28;20057;-64
2022/11/28 02:55:18;;;;;;;9.55;6.57;;;;;;;-142.75;100.00;77180.56;4978326;28;20092;-64
2022/11/28 02:57:49;;;;;;;13.80;8.15;;;;;;;-142.75;100.00;77172.69;4977029;28;20029;-64
2022/11/28 03:00:22;;;;;;;11.30;7.85;;;;;;;-142.75;100.00;77180.56;4977560;28;20032;-64
2022/11/28 03:03:02;;;;;;;12.18;7.53;;;;;;;-142.75;100.00;77178.59;4969588;28;20029;-64
2022/11/28 03:05:40;;;;;;;13.38;7.85;;;;;;;-142.75;100.00;77188.44;4979926;28;20084;-63
2022/11/28 03:08:47;;;;;;;10.82;7.03;;;;;;;-142.75;100.00;77176.63;4969142;28;20033;-63
2022/11/28 03:11:28;;;;;;;11.17;7.40;;;;;;;-142.75;100.00;77190.41;4970204;28;20037;-63
2022/11/28 03:14:08;;;;;;;13.43;8.10;;;;;;;-142.75;100.00;77188.44;4973276;28;20124;-64
2022/11/28 03:17:03;;;;;;;12.63;8.07;;;;;;;-142.75;100.00;77186.47;4974163;28;20025;-64
2022/11/28 03:19:57;;;;;;;12.65;8.35;;;;;;;-142.75;100.00;77180.56;4957575;28;20037;-64
2022/11/28 03:22:39;;;;;;;11.57;7.65;;;;;;;-142.75;100.00;77196.31;4949878;28;20097;-64
2022/11/28 03:25:40;;;;;;;13.73;8.73;;;;;;;-142.75;100.00;77200.25;4982683;28;20036;-64
2022/11/28 03:28:31;;;;;;;12.98;8.98;;;;;;;-142.75;100.00;77198.28;4946628;28;20033;-63
2022/11/28 03:30:59;;;;;;;16.30;9.15;;;;;;;-142.75;100.00;77216.00;4968303;28;20123;-64
2022/11/28 03:33:29;;;;;;;14.93;8.73;;;;;;;-142.75;100.00;77214.03;4976646;28;20535;-64
2022/11/28 03:36:26;;;;;;;14.50;9.60;;;;;;;-142.75;100.00;77210.09;4970241;28;20026;-64
2022/11/28 03:39:07;;;;;;;15.63;9.48;;;;;;;-142.75;100.00;77223.88;4951461;28;20041;-64
2022/11/28 03:41:41;;;;;;;14.38;9.00;;;;;;;-142.75;100.00;77216.00;4978712;28;20029;-64
2022/11/28 03:44:13;;;;;;;15.73;9.30;;;;;;;-142.75;100.00;77221.91;4981590;28;20595;-62
2022/11/28 03:46:45;;;;;;;16.63;9.90;;;;;;;-142.75;100.00;77216.00;4975191;28;20090;-64
2022/11/28 03:49:16;;;;;;;14.30;8.88;;;;;;;-142.75;100.00;77214.03;4975157;28;20088;-64
2022/11/28 03:51:51;;;;;;;16.50;9.30;;;;;;;-142.75;100.00;77208.13;4973768;28;20036;-64
2022/11/28 03:54:27;;;;;;;15.18;8.65;;;;;;;-142.75;100.00;77196.31;4979958;28;20025;-64
2022/11/28 03:57:10;;;;;;;15.43;9.55;;;;;;;-142.75;100.00;77198.28;4972379;28;20951;-64
2022/11/28 03:59:48;;;;;;;16.67;9.60;;;;;;;-142.75;100.00;77200.25;4973607;28;20128;-64
2022/11/28 04:02:22;;;;;;;19.27;8.98;;;;;;;-142.75;100.00;77206.16;4965461;28;20038;-64
2022/11/28 04:05:17;;;;;;;16.92;9.35;;;;;;;-142.75;100.00;77192.38;4972404;28;20025;-64
2022/11/28 04:07:51;;;;;;;15.77;9.43;;;;;;;-142.75;100.00;77198.28;4978624;28;20060;-64
2022/11/28 04:10:17;;;;;;;16.33;9.25;;;;;;;-142.75;100.00;77196.31;4970462;28;20083;-64
2022/11/28 04:13:17;;;;;;;18.70;9.55;;;;;;;-142.75;100.00;77200.25;4979468;28;20025;-64
2022/11/28 04:15:53;;;;;;;21.23;10.45;;;;;;;-142.75;100.00;77196.31;4972174;28;20094;-64
2022/11/28 04:18:26;;;;;;;16.05;8.68;;;;;;;-142.75;100.00;77208.13;4978719;28;20079;-64
2022/11/28 04:21:07;;;;;;;19.33;10.45;;;;;;;-142.75;100.00;77196.31;4969592;28;20051;-64
2022/11/28 04:23:36;;;;;;;17.88;9.02;;;;;;;-142.75;100.00;77202.22;4972777;28;20029;-64
2022/11/28 04:26:21;;;;;;;18.23;9.68;;;;;;;-142.75;100.00;77200.25;4976442;28;20028;-64
2022/11/28 04:28:49;;;;;;;17.85;10.30;;;;;;;-142.75;100.00;77208.13;4974743;28;20033;-63
2022/11/28 04:31:17;;;;;;;17.80;9.75;;;;;;;-142.75;100.00;77196.31;4981324;28;20043;-66
2022/11/28 04:33:49;;;;;;;19.43;10.80;;;;;;;-142.75;100.00;77216.00;4973618;28;20020;-66
2022/11/28 04:36:19;;;;;;;16.70;10.38;;;;;;;-142.75;100.00;77204.19;4969516;28;20029;-66
2022/11/28 04:38:54;;;;;;;17.50;10.20;;;;;;;-142.75;100.00;77212.06;4967976;28;20044;-64
2022/11/28 04:41:31;;;;;;;11.15;6.85;;;;;;;-142.75;100.00;77212.06;4973175;28;20021;-66
2022/11/28 04:44:23;;;;;;;19.55;10.43;;;;;;;-142.75;100.00;77210.09;4973925;28;20603;-62
2022/11/28 04:46:52;;;;;;;20.63;10.57;;;;;;;-142.75;100.00;77219.94;4955986;28;20582;-63
2022/11/28 04:49:18;;;;;;;15.80;9.98;;;;;;;-142.75;100.00;77214.03;4972980;28;20087;-66
2022/11/28 04:52:05;;;;;;;17.27;10.18;;;;;;;-142.75;100.00;77227.81;4975712;28;20025;-66
2022/11/28 04:54:35;;;;;;;18.95;10.45;;;;;;;-142.75;100.00;77217.97;4973945;28;20209;-66
2022/11/28 04:57:10;;;;;;;16.88;9.85;;;;;;;-142.75;100.00;77214.03;4961517;28;20029;-66
2022/11/28 04:59:37;;;;;;;22.20;9.98;;;;;;;-142.75;100.00;77223.88;4965219;28;20132;-66
2022/11/28 05:02:04;;;;;;;16.80;10.43;;;;;;;-142.75;100.00;77223.88;4961171;28;20049;-65
2022/11/28 05:04:33;;;;;;;19.63;10.82;;;;;;;-142.75;100.00;77227.81;4964902;28;20026;-66
2022/11/28 05:07:07;;;;;;;19.05;10.45;;;;;;;-142.75;100.00;77219.94;4973795;28;20162;-65
2022/11/28 05:09:32;;;;;;;19.80;10.48;;;;;;;-142.75;100.00;77225.84;4984947;28;20025;-65
2022/11/28 05:11:58;;;;;;;26.15;11.27;;;;;;;-142.75;100.00;77229.78;4975508;28;20472;-65
2022/11/28 05:14:24;;;;;;;21.25;12.23;;;;;;;-142.75;100.00;77231.75;4970131;28;20329;-63
2022/11/28 05:16:49;;;;;;;24.30;11.10;;;;;;;-142.75;100.00;77235.69;4981960;28;20322;-63
2022/11/28 05:19:15;;;;;;;21.85;11.52;;;;;;;-142.75;100.00;77235.69;4969910;28;20374;-62
2022/11/28 05:21:41;;;;;;;21.40;12.32;;;;;;;-142.75;100.00;77235.69;4979262;28;20028;-63
2022/11/28 05:24:07;;;;;;;21.65;12.00;;;;;;;-142.75;100.00;77237.66;4972333;28;20389;-63
2022/11/28 05:26:34;;;;;;;;;;;;;;;-142.75;100.00;77237.66;4984795;28;20025;-63
2022/11/28 05:29:00;;;;;;;21.25;11.07;;;;;;;-142.75;100.00;77241.59;4973203;28;20031;-63
2022/11/28 05:31:25;;;;;;;;;;;;;;;-142.75;100.00;77249.47;4969786;28;20047;-62
2022/11/28 05:33:52;;;;;;;20.90;11.38;;;;;;;-142.75;100.00;77267.19;4973610;28;20195;-63
2022/11/28 05:36:18;;;;;;;22.30;12.25;;;;;;;-142.75;100.00;77259.31;4969586;28;20106;-63
2022/11/28 05:38:43;;;;;;;25.30;12.18;;;;;;;-142.75;100.00;77241.59;4976614;28;20440;-63
2022/11/28 05:41:17;;;;;;;24.00;11.88;;;;;;;-142.75;100.00;77243.56;4969846;28;20508;-65
2022/11/28 05:43:43;;;;;;;28.33;12.38;;;;;;;-142.75;100.00;77253.41;4969113;28;20037;-66
2022/11/28 05:46:08;;;;;;;25.23;12.02;;;;;;;-142.75;100.00;77261.28;4972746;28;20346;-67
2022/11/28 05:48:34;;;;;;;24.73;12.20;;;;;;;-142.75;100.00;77259.31;4967144;28;20479;-66
2022/11/28 05:51:03;;;;;;;31.48;13.13;;;;;;;-142.75;100.00;77257.34;4972709;28;20325;-65
2022/11/28 05:53:28;;;;;;;26.30;12.20;;;;;;;-142.75;100.00;77245.53;4977203;28;20017;-66
2022/11/28 05:55:53;;;;;;;26.63;13.38;;;;;;;-142.75;100.00;77245.53;4984319;28;20253;-67
2022/11/28 05:58:19;;;;;;;31.73;14.60;;;;;;;-142.75;100.00;77239.63;4966451;28;20446;-66
2022/11/28 06:00:44;;;;;;;29.65;13.70;;;;;;;-142.75;100.00;77243.56;4973922;28;20238;-65
2022/11/28 06:03:10;;;;;;;33.10;14.20;;;;;;;-142.75;100.00;77245.53;4960442;28;20444;-66
2022/11/28 06:05:39;;;;;;;35.83;14.60;;;;;;;-142.75;100.00;77237.66;4964614;28;20263;-65
2022/11/28 06:08:05;;;;;;;31.17;14.13;;;;;;;-142.75;100.00;77235.69;4964618;28;20052;-65
2022/11/28 06:10:30;;;;;;;34.47;14.63;;;;;;;-142.75;100.00;77247.50;4971120;28;20496;-65
2022/11/28 06:15:25;;;;;;;36.00;15.00;;;;;;;-142.75;100.00;77212.06;4951883;28;20053;-62
2022/11/28 06:17:50;;;;;;;38.58;16.88;;;;;;;-142.75;100.00;77212.06;4998194;28;20357;-62
2022/11/28 06:20:16;;;;;;;29.00;13.77;;;;;;;-142.75;100.00;77216.00;4998051;28;20302;-62
2022/11/28 06:22:42;;;;;;;31.38;15.75;;;;;;;-142.75;100.00;77216.00;4981618;28;20307;-62
2022/11/28 06:25:07;;;;;;;42.38;18.42;;;;;;;-142.75;100.00;77223.88;4986896;28;20410;-63
2022/11/28 06:27:34;;;;;;;43.65;16.58;;;;;;;-142.75;100.00;77221.91;4993663;28;20426;-62
2022/11/28 06:29:59;;;;;;;32.08;17.20;;;;;;;-142.75;100.00;77221.91;4997641;28;20047;-62
2022/11/28 06:32:25;;;;;;;41.28;16.80;;;;;;;-142.75;100.00;77221.91;4994618;28;20352;-62
2022/11/28 06:34:50;;;;;;;40.35;17.42;;;;;;;-142.75;100.00;77208.13;4997462;28;20331;-62
2022/11/28 06:37:16;;;;;;;42.75;17.08;;;;;;;-142.75;100.00;77208.13;4992523;28;20536;-62
2022/11/28 06:39:41;;;;;;;39.13;17.20;;;;;;;-142.75;100.00;77216.00;4991810;28;20079;-62
2022/11/28 06:42:07;;;;;;;40.42;16.02;;;;;;;-142.75;100.00;77216.00;4996647;28;20333;-62
2022/11/28 06:44:32;;;;;;;43.70;17.23;;;;;;;-142.75;100.00;77212.06;4994406;28;20028;-61
2022/11/28 06:46:58;;;;;;;37.13;16.23;;;;;;;-142.75;100.00;77212.06;4997072;28;20179;-62
2022/11/28 06:49:23;;;;;;;42.42;17.75;;;;;;;-142.75;100.00;77208.13;4990976;28;20291;-61
2022/11/28 06:51:49;;;;;;;37.15;17.70;;;;;;;-142.75;100.00;77204.19;5001861;28;20509;-62
2022/11/28 06:54:15;;;;;;;36.38;16.70;;;;;;;-142.75;100.00;77200.25;4990833;28;20333;-62
2022/11/28 06:56:40;;;;;;;37.40;16.10;;;;;;;-142.75;100.00;77200.25;4999661;28;20434;-62
2022/11/28 06:59:06;;;;;;;38.97;17.02;;;;;;;-142.75;100.00;77196.31;4992456;28;20229;-62
2022/11/28 07:01:33;;;;;;;42.28;17.13;;;;;;;-142.75;100.00;77196.31;4995312;28;20345;-62
2022/11/28 07:03:58;;;;;;;43.38;17.92;;;;;;;-142.75;100.00;77214.03;4988010;28;20114;-62
2022/11/28 07:06:26;;;;;;;36.70;17.30;;;;;;;-142.75;100.00;77235.69;4996717;28;20357;-62
2022/11/28 07:08:52;;;;;;;54.15;19.33;;;;;;;-142.75;100.00;77223.88;4990671;28;20056;-62
2022/11/28 07:11:31;;;;;;;46.85;18.48;;;;;;;-142.75;100.00;77229.78;4993743;28;20106;-62
2022/11/28 07:13:59;;;;;;;44.33;17.38;;;;;;;-142.75;100.00;77237.66;4974841;28;20020;-62
2022/11/28 07:16:27;;;;;;;47.35;18.00;;;;;;;-142.75;100.00;77223.88;4988446;28;20107;-62
2022/11/28 07:18:53;;;;;;;50.33;19.63;;;;;;;-142.75;100.00;77229.78;4984546;28;20025;-62
2022/11/28 07:21:19;;;;;;;43.40;17.30;;;;;;;-142.75;100.00;77223.88;4986555;28;20025;-62
2022/11/28 07:23:46;;;;;;;51.25;17.83;;;;;;;-142.75;100.00;77208.13;4998533;28;20545;-62
2022/11/28 07:26:14;;;;;;;46.88;17.90;;;;;;;-142.75;100.00;77212.06;4996739;28;20054;-62
2022/11/28 07:28:40;;;;;;;42.38;18.00;;;;;;;-142.75;100.00;77214.03;4996035;28;20025;-62
2022/11/28 07:31:33;;;;;;;45.15;17.63;;;;;;;-142.75;100.00;77210.09;4993492;28;20029;-61
2022/11/28 07:34:01;;;;;;;46.72;18.38;;;;;;;-142.75;100.00;77223.88;4976359;28;20060;-62
2022/11/28 07:36:27;;;;;;;47.60;18.73;;;;;;;-142.75;100.00;77223.88;4986520;28;20037;-62
2022/11/28 07:38:54;;;;;;;;;;;;;;;-142.75;100.00;77223.88;4992754;28;20121;-62
2022/11/28 07:41:21;;;;;;;46.60;17.30;;;;;;;-142.75;100.00;77231.75;4998630;28;19964;-62
2022/11/28 07:43:48;;;;;;;44.30;16.90;;;;;;;-142.75;100.00;77229.78;5000627;28;20012;-62
2022/11/28 07:46:17;;;;;;;54.20;19.48;;;;;;;-142.75;100.00;77229.78;4997607;28;20056;-62
2022/11/28 07:48:43;;;;;;;48.92;18.67;;;;;;;-142.75;100.00;77225.84;4995303;28;20044;-62
2022/11/28 07:51:11;;;;;;;;;;;;;;;-142.75;100.00;77212.06;4992711;28;20131;-62
2022/11/28 07:53:37;;;;;;;53.58;19.10;;;;;;;-142.75;100.00;77231.75;4988852;28;19912;-62
2022/11/28 07:56:05;;;;;;;54.38;20.35;;;;;;;-142.75;100.00;77223.88;4987863;28;20064;-62
2022/11/28 07:58:33;;;;;;;60.38;19.92;;;;;;;-142.75;100.00;77219.94;4988717;28;20632;-62
2022/11/28 08:00:58;;;;;;;49.25;20.08;;;;;;;-142.75;100.00;77221.91;5003781;28;20569;-63
2022/11/28 08:03:24;;;;;;;50.60;19.30;;;;;;;-142.75;100.00;77219.94;4996055;28;20043;-62
2022/11/28 08:05:49;;;;;;;56.70;21.17;;;;;;;-142.75;100.00;77231.75;4999842;28;20341;-62
2022/11/28 08:08:19;;;;;;;63.05;20.20;;;;;;;-142.75;100.00;77221.91;4995268;28;20048;-61
2022/11/28 08:10:46;;;;;;;61.17;20.48;;;;;;;-142.75;100.00;77227.81;4988994;28;20626;-60
2022/11/28 08:13:12;;;;;;;56.13;20.20;;;;;;;-142.75;100.00;77217.97;5001288;28;20599;-62
2022/11/28 08:15:39;;;;;;;63.70;21.13;;;;;;;-142.75;100.00;77216.00;4990611;28;20152;-62
2022/11/28 08:18:06;;;;;;;61.58;20.85;;;;;;;-142.75;100.00;77231.75;4988246;28;20083;-60
2022/11/28 08:20:32;;;;;;;61.25;21.88;;;;;;;-142.75;100.00;77231.75;4993267;28;20537;-60
2022/11/28 08:22:57;;;;;;;63.55;21.80;;;;;;;-142.75;100.00;77227.81;4984127;28;20036;-61
2022/11/28 08:25:23;;;;;;;62.47;21.42;;;;;;;-142.75;100.00;77235.69;4987414;28;20329;-59
2022/11/28 08:27:48;;;;;;;63.25;23.50;;;;;;;-142.75;100.00;77227.81;4992877;28;20299;-63
2022/11/28 08:30:14;;;;;;;61.03;22.05;;;;;;;-142.75;100.00;77212.06;4988320;28;20357;-63
2022/11/28 08:32:39;;;;;;;58.13;21.75;;;;;;;-142.75;100.00;77206.16;4989622;28;20360;-62
2022/11/28 08:35:05;;;;;;;66.88;23.08;;;;;;;-142.75;100.00;77196.31;4999096;28;20033;-63
2022/11/28 08:37:30;;;;;;;59.60;22.00;;;;;;;-142.75;100.00;77194.34;5042583;28;20017;-63
2022/11/28 08:39:56;;;;;;;67.78;22.48;;;;;;;-142.75;100.00;77188.44;5045893;28;20104;-63
2022/11/28 08:42:22;;;;;;;62.30;22.33;;;;;;;-142.75;100.00;77182.53;5040357;28;20021;-61
2022/11/28 08:44:47;;;;;;;52.05;21.80;;;;;;;-142.75;100.00;77188.44;5040303;28;20370;-62
2022/11/28 08:47:12;;;;;;;60.38;21.48;;;;;;;-142.75;100.00;77180.56;5039815;28;20052;-63
2022/11/28 08:49:38;;;;;;;54.25;21.80;;;;;;;-142.75;100.00;77190.41;5039264;28;20017;-63
2022/11/28 08:52:04;;;;;;;52.83;20.00;;;;;;;-142.75;100.00;77186.47;5038760;28;20073;-62
2022/11/28 08:54:29;;;;;;;57.47;21.02;;;;;;;-142.75;100.00;77192.38;5038394;28;20025;-64
2022/11/28 08:56:54;;;;;;;56.10;20.00;;;;;;;-142.75;100.00;77194.34;5039708;28;20094;-61
2022/11/28 08:59:20;;;;;;;53.50;19.65;;;;;;;-142.75;100.00;77180.56;5038161;28;20064;-64
2022/11/28 09:01:45;;;;;;;48.08;18.65;;;;;;;-142.75;100.00;77176.63;5040222;28;20017;-63
2022/11/28 09:04:11;;;;;;;52.88;19.55;;;;;;;-142.75;100.00;77180.56;5039615;28;20053;-62
2022/11/28 09:06:39;;;;;;;50.83;19.20;;;;;;;-142.75;100.00;77174.66;5039255;28;20029;-61
2022/11/28 09:09:05;;;;;;;43.55;18.80;;;;;;;-142.75;100.00;77180.56;5040038;28;20033;-63
2022/11/28 09:11:31;;;;;;;49.83;17.83;;;;;;;-142.75;100.00;77174.66;5039887;28;20032;-63
2022/11/28 09:13:56;;;;;;;43.55;19.38;;;;;;;-142.75;100.00;77184.50;5039194;28;20028;-63
2022/11/28 09:16:22;;;;;;;46.05;18.73;;;;;;;-142.75;100.00;77180.56;5035761;28;20020;-63
2022/11/28 09:18:47;;;;;;;38.67;16.55;;;;;;;-142.75;100.00;77168.75;5038169;28;20028;-63
2022/11/28 09:21:14;;;;;;;35.25;15.90;;;;;;;-142.75;100.00;77153.00;5037209;28;20029;-63
2022/11/28 09:23:41;;;;;;;35.85;15.73;;;;;;;-142.75;100.00;77149.06;5036657;28;20148;-62
2022/11/28 09:26:10;;;;;;;45.60;17.83;;;;;;;-142.75;100.00;77160.88;5038311;28;20691;-64
2022/11/28 09:28:36;;;;;;;45.72;16.42;;;;;;;-142.75;100.00;77154.97;5037350;28;20136;-63
2022/11/28 09:31:03;;;;;;;38.70;16.30;;;;;;;-142.75;100.00;77153.00;5047925;28;20472;-64
2022/11/28 09:33:29;;;;;;;42.33;16.77;;;;;;;-142.75;100.00;77151.03;5038072;28;20059;-62
2022/11/28 09:35:55;;;;;;;37.47;15.93;;;;;;;-142.75;100.00;77145.13;5041846;28;20131;-64
2022/11/28 09:38:21;;;;;;;40.25;15.63;;;;;;;-142.75;100.00;77137.25;5037282;28;20021;-63
2022/11/28 09:40:47;;;;;;;40.42;17.70;;;;;;;-142.75;100.00;77137.25;5037633;28;20838;-62
2022/11/28 09:43:20;;;;;;;;;;;;;;;-142.75;100.00;77129.38;5039683;28;20029;-64
2022/11/28 09:45:49;;;;;;;38.17;16.02;;;;;;;-142.75;100.00;77135.28;5041079;28;19916;-66
2022/11/28 09:48:29;;;;;;;39.03;17.23;;;;;;;-142.75;100.00;77131.34;5058632;28;20436;-61
2022/11/28 09:51:06;;;;;;;40.65;17.02;;;;;;;-142.75;100.00;77137.25;5059649;28;20036;-57
2022/11/28 09:54:19;;;;;;;31.27;15.75;;;;;;;-142.75;100.00;77131.34;5059434;28;20036;-62
2022/11/28 09:56:48;;;;;;;41.75;18.33;;;;;;;-142.75;100.00;77127.41;5059079;28;20517;-63
2022/11/28 09:59:27;;;;;;;44.25;19.05;;;;;;;-142.75;100.00;77137.25;5059334;28;20043;-63
2022/11/28 10:02:01;;;;;;;39.08;16.83;;;;;;;-142.75;100.00;77145.13;5059746;28;20028;-63
2022/11/28 10:04:41;;;;;;;45.78;17.92;;;;;;;-142.75;100.00;77133.31;5059108;28;20024;-64
2022/11/28 10:07:20;;;;;;;45.67;16.73;;;;;;;-142.75;100.00;77137.25;5050802;28;20033;-63
2022/11/28 10:10:14;;;;;;;38.47;16.85;;;;;;;-142.75;100.00;77133.31;5039756;28;20063;-61
2022/11/28 10:12:52;;;;;;;40.75;16.58;;;;;;;-142.75;100.00;77133.31;5038833;28;20029;-62
2022/11/28 10:15:42;;;;;;;37.70;16.70;;;;;;;-142.75;100.00;77133.31;5039008;28;20044;-63
2022/11/28 10:18:45;;;;;;;41.00;17.15;;;;;;;-142.75;100.00;77113.63;5037142;28;20132;-62
2022/11/28 10:21:43;;;;;;;38.22;16.52;;;;;;;-142.75;100.00;77103.78;5036811;28;20755;-63
2022/11/28 10:24:17;;;;;;;43.25;15.45;;;;;;;-142.75;100.00;77109.69;5032915;28;20483;-62
2022/11/28 10:26:47;;;;;;;40.30;16.75;;;;;;;-142.75;100.00;77109.69;5040926;28;20056;-62
2022/11/28 10:29:39;;;;;;;46.22;17.70;;;;;;;-142.75;100.00;77107.72;5042135;28;20041;-60
2022/11/28 10:32:06;;;;;;;43.88;17.33;;;;;;;-142.75;100.00;77099.84;5042430;28;20052;-65
2022/11/28 10:34:40;;;;;;;47.33;18.73;;;;;;;-142.75;100.00;77101.81;5042798;28;20492;-62
2022/11/28 10:37:13;;;;;;;39.25;16.40;;;;;;;-142.75;100.00;77097.88;5040828;28;20024;-63
2022/11/28 10:39:42;;;;;;;35.22;15.77;;;;;;;-142.75;100.00;77097.88;5041149;28;20086;-63
2022/11/28 10:42:20;;;;;;;41.78;16.45;;;;;;;-142.75;100.00;77097.88;5042474;28;20059;-63
2022/11/28 10:44:54;;;;;;;39.15;16.70;;;;;;;-142.75;100.00;77097.88;5041065;28;20082;-64
2022/11/28 10:47:28;;;;;;;45.67;16.60;;;;;;;-142.75;100.00;77091.97;5041619;28;20287;-63
2022/11/28 10:50:11;;;;;;;45.70;16.88;;;;;;;-142.75;100.00;77091.97;5042997;28;20029;-63
2022/11/28 10:52:50;;;;;;;40.40;17.48;;;;;;;-142.75;100.00;77088.03;5043046;28;20052;-63
2022/11/28 10:55:29;;;;;;;40.17;15.77;;;;;;;-142.75;100.00;77076.22;5042778;28;20032;-62
2022/11/28 10:58:19;;;;;;;39.67;15.52;;;;;;;-142.75;100.00;77086.06;5041825;28;20025;-64
2022/11/28 11:00:48;;;;;;;38.95;16.08;;;;;;;-142.75;100.00;77074.25;5042359;28;20748;-64
2022/11/28 11:03:16;;;;;;;38.25;17.38;;;;;;;-142.75;100.00;77076.22;5060618;28;20112;-62
2022/11/28 11:05:41;;;;;;;45.60;18.98;;;;;;;-142.75;100.00;77088.03;5060672;28;20074;-63
2022/11/28 11:08:23;;;;;;;40.17;16.40;;;;;;;-142.75;100.00;77072.28;5061345;28;20498;-65
2022/11/28 11:10:59;;;;;;;47.03;17.95;;;;;;;-142.75;100.00;77066.38;5062001;28;20039;-63
2022/11/28 11:13:28;;;;;;;45.10;18.38;;;;;;;-142.75;100.00;77072.28;5061337;28;20044;-63
2022/11/28 11:16:06;;;;;;;41.15;17.55;;;;;;;-142.75;100.00;77058.50;5049107;28;20025;-64
2022/11/28 11:18:36;;;;;;;39.40;16.83;;;;;;;-142.75;100.00;77054.56;5040088;28;20029;-63
2022/11/28 11:21:25;;;;;;;39.75;17.58;;;;;;;-142.75;100.00;77062.44;5041579;28;20025;-63